Granger, Iowa
Current Conditions -  °F | °C
As of 6:15 AM on Friday 28 Nov 2014 (Local Time) from KIKV Reporting Station
Clear Clear  
Wind Chill:   Ceiling: Unl
Heat Index: 18°   Visibility: 10mi
Dew Point: 14°   Wind: 12mph
Humidity: 86%   Direction: 160°SSE
Pressure: 30.03"   Gusts: NA
Location:  41.76°N, 93.82°W
Report Text: KIKV 281215Z AUTO 16010KT 10SM CLR M08/M10 A3003 RMK AO2
Loading
Personal Weather Stations






























Interactive Weather Map New forecast layout! Learn more

10-Day Weather Forecast

Advertisements
Track Severe Weather on mobile